Time;durP1;ratioP1;P1;durP2;ratioP2;P2;SDS_P1;SDS_P2;PMS_P1;PMS_P2;Temp;Humidity;BMP_temperature;BMP_pressure;BME280_temperature;BME280_humidity;BME280_pressure;Samples;Min_cycle;Max_cycle;Signal;HPM_P1;HPM_P2
2023/03/06 00:01:40;;;;;;;;;;;;;;;-0.76;90.53;100687.19;5017752;28;19916;-70
2023/03/06 00:04:07;;;;;;;;;;;;;;;-0.79;90.38;100696.28;5009980;28;19917;-69
2023/03/06 00:06:33;;;;;;;;;;;;;;;-0.83;90.36;100687.97;5009239;28;20295;-70
2023/03/06 00:08:58;;;;;;;;;;;;;;;-0.85;90.36;100692.63;5029396;28;20476;-69
2023/03/06 00:11:23;;;;;;;;;;;;;;;-0.87;90.54;100696.47;5004433;28;19956;-70
2023/03/06 00:13:49;;;;;;;;;;;;;;;-0.82;90.74;100691.41;5006820;28;19927;-71
2023/03/06 00:16:15;;;;;;;;;;;;;;;-0.83;90.65;100687.97;4987554;28;19917;-70
2023/03/06 00:18:42;;;;;;;;;;;;;;;-0.79;90.62;100687.59;5015722;28;19916;-68
2023/03/06 00:21:09;;;;;;;;;;;;;;;-0.79;90.61;100679.72;4971043;28;19960;-69
2023/03/06 00:23:35;;;;;;;;;;;;;;;-0.83;90.35;100684.53;5008558;28;19985;-70
2023/03/06 00:26:01;;;;;;;;;;;;;;;-0.84;90.60;100688.16;4997308;28;19999;-70
2023/03/06 00:28:29;;;;;;;;;;;;;;;-0.72;90.61;100681.34;4994524;28;20011;-69
2023/03/06 00:30:55;;;;;;;;;;;;;;;-0.79;90.29;100674.44;4990088;28;20643;-70
2023/03/06 00:33:21;;;;;;;;;;;;;;;-0.86;90.53;100679.69;4974902;28;19917;-70
2023/03/06 00:35:47;;;;;;;;;;;;;;;-0.80;90.69;100664.94;5007006;28;20266;-70
2023/03/06 00:38:12;;;;;;;;;;;;;;;-0.74;90.66;100672.03;5005380;28;20185;-70
2023/03/06 00:40:38;;;;;;;;;;;;;;;-0.83;90.43;100669.56;5021451;28;19928;-69
2023/03/06 00:43:05;;;;;;;;;;;;;;;-0.89;90.80;100675.59;5003266;28;19924;-69
2023/03/06 00:45:30;;;;;;;;;;;;;;;-0.91;90.78;100682.88;4973599;28;20054;-70
2023/03/06 00:47:56;;;;;;;;;;;;;;;-0.91;90.63;100679.44;5005880;28;20030;-70
2023/03/06 00:50:23;;;;;;;;;;;;;;;-0.93;90.86;100684.91;5025711;28;20370;-70
2023/03/06 00:52:48;;;;;;;;;;;;;;;-0.94;90.74;100682.47;5003597;28;19927;-71
2023/03/06 00:55:14;;;;;;;;;;;;;;;-0.95;90.69;100681.66;4990857;28;19917;-69
2023/03/06 00:57:39;;;;;;;;;;;;;;;-0.97;90.93;100683.66;5024524;28;19921;-70
2023/03/06 01:00:06;;;;;;;;;;;;;;;-0.97;90.93;100683.66;4975241;28;19959;-69
2023/03/06 01:02:31;;;;;;;;;;;;;;;-1.00;91.00;100678.81;5003609;28;19971;-70
2023/03/06 01:04:57;;;;;;;;;;;;;;;-1.00;90.98;100676.19;5026562;28;19959;-70
2023/03/06 01:07:22;;;;;;;;;;;;;;;-1.00;90.74;100672.75;5010807;28;20050;-69
2023/03/06 01:09:49;;;;;;;;;;;;;;;-1.00;90.90;100673.56;4990840;28;20402;-69
2023/03/06 01:12:14;;;;;;;;;;;;;;;-0.99;90.96;100667.28;4987486;28;19917;-70
2023/03/06 01:14:40;;;;;;;;;;;;;;;-0.95;90.95;100673.78;5010479;28;19920;-70
2023/03/06 01:17:08;;;;;;;;;;;;;;;-0.96;90.71;100673.97;5025144;28;19956;-70
2023/03/06 01:19:34;;;;;;;;;;;;;;;-0.96;90.82;100674.75;5005677;28;20418;-70
2023/03/06 01:22:00;;;;;;;;;;;;;;;-0.96;90.93;100673.97;4980009;28;19922;-71
2023/03/06 01:24:28;;;;;;;;;;;;;;;-0.98;90.82;100666.28;5007565;28;19916;-71
2023/03/06 01:26:55;;;;;;;;;;;;;;;-1.00;90.71;100663.03;5007411;28;19916;-70
2023/03/06 01:29:20;;;;;;;;;;;;;;;-0.98;91.06;100666.28;5023972;28;19924;-70
2023/03/06 01:31:46;;;;;;;;;;;;;;;-0.99;90.84;100656.78;5011184;28;19924;-71
2023/03/06 01:34:12;;;;;;;;;;;;;;;-0.96;90.83;100664.25;5020455;28;19917;-69
2023/03/06 01:36:37;;;;;;;;;;;;;;;-0.93;90.72;100652.56;5006566;28;19937;-69
2023/03/06 01:39:03;;;;;;;;;;;;;;;-0.94;90.85;100650.94;5024739;28;20057;-70
2023/03/06 01:41:29;;;;;;;;;;;;;;;-0.98;90.89;100650.50;4975195;28;20336;-70
2023/03/06 01:43:57;;;;;;;;;;;;;;;-1.00;90.86;100649.88;5002218;28;20720;-70
2023/03/06 01:46:22;;;;;;;;;;;;;;;-1.01;90.86;100643.03;4989089;28;20012;-70
2023/03/06 01:48:50;;;;;;;;;;;;;;;-1.00;90.94;100639.38;5013737;28;19917;-69
2023/03/06 01:51:16;;;;;;;;;;;;;;;-0.99;91.08;100640.19;5022123;28;19971;-69
2023/03/06 01:53:42;;;;;;;;;;;;;;;-0.99;91.14;100635.75;5007794;28;19917;-69
2023/03/06 01:56:09;;;;;;;;;;;;;;;-0.95;90.96;100644.03;4992553;28;20311;-70
2023/03/06 01:58:35;;;;;;;;;;;;;;;-0.96;91.27;100639.78;5009401;28;20027;-70
2023/03/06 02:01:01;;;;;;;;;;;;;;;-0.98;91.04;100637.34;4988414;28;20677;-69
2023/03/06 02:03:28;;;;;;;;;;;;;;;-0.98;91.13;100624.22;5003333;28;20298;-69
2023/03/06 02:05:54;;;;;;;;;;;;;;;-0.98;91.06;100633.91;5026134;28;19917;-68
2023/03/06 02:08:22;;;;;;;;;;;;;;;-0.95;91.26;100631.72;4999515;28;20305;-69
2023/03/06 02:11:13;;;;;;;;;;;;;;;-0.97;91.05;100638.16;4977903;28;19916;-69
2023/03/06 02:13:39;;;;;;;;;;;;;;;-0.95;91.13;100633.50;4990073;28;19923;-70
2023/03/06 02:16:06;;;;;;;;;;;;;;;-0.95;91.25;100628.25;4990128;28;19916;-70
2023/03/06 02:18:32;;;;;;;;;;;;;;;-0.88;91.27;100635.19;5020548;28;19976;-68
2023/03/06 02:20:59;;;;;;;;;;;;;;;-0.90;91.16;100631.91;4989501;28;19916;-69
2023/03/06 02:23:30;;;;;;;;;;;;;;;-0.92;91.07;100626.06;4983718;28;20683;-70
2023/03/06 02:25:56;;;;;;;;;;;;;;;-0.92;91.05;100630.50;5006228;28;19917;-71
2023/03/06 02:28:23;;;;;;;;;;;;;;;-0.91;91.23;100624.22;4989569;28;19923;-71
2023/03/06 02:30:50;;;;;;;;;;;;;;;-0.93;90.99;100627.06;5006952;28;19916;-70
2023/03/06 02:33:17;;;;;;;;;;;;;;;-0.93;91.40;100616.56;5007614;28;20396;-70
2023/03/06 02:35:46;;;;;;;;;;;;;;;-0.92;91.26;100618.16;5003586;28;19999;-70
2023/03/06 02:38:13;;;;;;;;;;;;;;;-0.92;91.28;100623.44;5005323;28;19994;-69
2023/03/06 02:40:42;;;;;;;;;;;;;;;-0.88;91.33;100621.19;5026907;28;20004;-69
2023/03/06 02:43:10;;;;;;;;;;;;;;;-0.80;91.33;100612.34;4989583;28;19951;-69
2023/03/06 02:45:37;;;;;;;;;;;;;;;-0.83;91.05;100610.91;4998418;28;20007;-69
2023/03/06 02:48:04;;;;;;;;;;;;;;;-0.79;91.28;100613.97;4987903;28;20055;-70
2023/03/06 02:50:30;;;;;;;;;;;;;;;-0.87;90.98;100607.88;5021766;28;19913;-69
2023/03/06 02:52:55;;;;;;;;;;;;;;;-0.84;91.22;100599.59;5002162;28;19917;-69
2023/03/06 02:55:21;;;;;;;;;;;;;;;-0.88;91.25;100602.78;5009938;28;20355;-69
2023/03/06 02:57:47;;;;;;;;;;;;;;;-0.88;91.06;100608.06;4999124;28;19921;-68
2023/03/06 03:00:13;;;;;;;;;;;;;;;-0.85;91.32;100602.41;4988123;28;19923;-69
2023/03/06 03:02:38;;;;;;;;;;;;;;;-0.83;91.27;100598.56;4990922;28;20004;-69
2023/03/06 03:05:04;;;;;;;;;;;;;;;-0.77;91.53;100588.28;5022931;28;20024;-72
2023/03/06 03:07:31;;;;;;;;;;;;;;;-0.84;91.22;100594.31;4969811;28;19925;-69
2023/03/06 03:09:57;;;;;;;;;;;;;;;-0.84;91.21;100586.44;4982039;28;19918;-69
2023/03/06 03:12:22;;;;;;;;;;;;;;;-0.91;91.13;100580.34;5007924;28;19917;-69
2023/03/06 03:14:48;;;;;;;;;;;;;;;-0.92;91.47;100581.38;5008951;28;19916;-69
2023/03/06 03:17:14;;;;;;;;;;;;;;;-0.90;91.61;100571.44;5005946;28;19924;-69
2023/03/06 03:19:40;;;;;;;;;;;;;;;-0.89;91.54;100554.66;5018299;28;19943;-70
2023/03/06 03:22:05;;;;;;;;;;;;;;;-0.94;91.27;100564.19;5005418;28;19920;-69
2023/03/06 03:24:31;;;;;;;;;;;;;;;-0.95;91.59;100562.53;4992738;28;19917;-70
2023/03/06 03:26:56;;;;;;;;;;;;;;;-1.02;91.39;100565.13;5028574;28;19943;-69
2023/03/06 03:29:23;;;;;;;;;;;;;;;-1.04;91.36;100556.66;5006087;28;20302;-69
2023/03/06 03:31:49;;;;;;;;;;;;;;;-1.04;91.63;100555.84;4994945;28;19986;-69
2023/03/06 03:34:15;;;;;;;;;;;;;;;-1.02;91.45;100553.81;4990404;28;19948;-69
2023/03/06 03:36:41;;;;;;;;;;;;;;;-1.01;91.60;100547.59;4987847;28;19921;-69
2023/03/06 03:39:09;;;;;;;;;;;;;;;-0.99;91.58;100549.00;5001398;28;19944;-69
2023/03/06 03:41:35;;;;;;;;;;;;;;;-0.94;91.54;100557.09;4987563;28;19917;-70
2023/03/06 03:44:04;;;;;;;;;;;;;;;-0.94;91.44;100546.59;4973368;28;20012;-70
2023/03/06 03:46:30;;;;;;;;;;;;;;;-0.95;91.43;100555.47;5001731;28;20023;-69
2023/03/06 03:48:56;;;;;;;;;;;;;;;-0.97;91.48;100546.97;5012279;28;20411;-69
2023/03/06 03:51:21;;;;;;;;;;;;;;;-0.99;91.54;100548.19;5014114;28;20608;-69
2023/03/06 03:53:51;;;;;;;;;;;;;;;-0.99;91.46;100549.00;5009966;28;19928;-69
2023/03/06 03:56:20;;;;;;;;;;;;;;;-1.02;91.38;100538.06;5006309;28;19939;-70
2023/03/06 03:58:58;;;;;;;;;;;;;;;-1.04;91.29;100535.63;4997808;28;19921;-70
2023/03/06 04:01:26;;;;;;;;;;;;;;;-1.06;91.40;100537.66;4995646;28;19917;-70
2023/03/06 04:03:53;;;;;;;;;;;;;;;-1.08;91.36;100538.84;5008720;28;19982;-69
2023/03/06 04:06:18;;;;;;;;;;;;;;;-1.13;91.34;100539.44;5012897;28;19938;-69
2023/03/06 04:08:45;;;;;;;;;;;;;;;-1.14;91.21;100535.22;5007095;28;19916;-71
2023/03/06 04:11:10;;;;;;;;;;;;;;;-1.16;91.16;100535.38;5006996;28;20270;-70
2023/03/06 04:13:36;;;;;;;;;;;;;;;-1.16;91.32;100534.56;5009457;28;20397;-70
2023/03/06 04:16:02;;;;;;;;;;;;;;;-1.17;91.35;100535.59;5009299;28;19936;-69
2023/03/06 04:18:30;;;;;;;;;;;;;;;-1.20;91.09;100536.00;4993736;28;19974;-69
2023/03/06 04:21:04;;;;;;;;;;;;;;;-1.23;91.26;100533.75;4995686;28;19925;-69
2023/03/06 04:23:30;;;;;;;;;;;;;;;-1.24;91.23;100529.50;5007594;28;19918;-69
2023/03/06 04:25:58;;;;;;;;;;;;;;;-1.26;91.13;100526.28;4995299;28;19916;-69
2023/03/06 04:28:24;;;;;;;;;;;;;;;-1.29;91.01;100526.66;5005691;28;19972;-68
2023/03/06 04:30:50;;;;;;;;;;;;;;;-1.34;90.86;100523.81;4977901;28;19921;-69
2023/03/06 04:33:17;;;;;;;;;;;;;;;-1.38;90.89;100516.31;5008268;28;19943;-70
2023/03/06 04:35:43;;;;;;;;;;;;;;;-1.42;91.07;100517.75;5010808;28;20298;-70
2023/03/06 04:38:13;;;;;;;;;;;;;;;-1.44;91.20;100513.66;5010097;28;19931;-70
2023/03/06 04:40:43;;;;;;;;;;;;;;;-1.46;90.85;100515.69;4993387;28;19921;-70
2023/03/06 04:43:09;;;;;;;;;;;;;;;-1.47;90.95;100514.88;5023137;28;19913;-70
2023/03/06 04:45:34;;;;;;;;;;;;;;;-1.48;91.13;100508.00;5007949;28;20914;-70
2023/03/06 04:48:00;;;;;;;;;;;;;;;-1.45;90.91;100512.84;5009130;28;19921;-70
2023/03/06 04:50:26;;;;;;;;;;;;;;;-1.45;91.09;100509.44;4991791;28;19923;-70
2023/03/06 04:52:52;;;;;;;;;;;;;;;-1.48;90.78;100507.19;5005500;28;19917;-69
2023/03/06 04:55:18;;;;;;;;;;;;;;;-1.49;90.69;100497.69;5009392;28;19916;-69
2023/03/06 04:57:44;;;;;;;;;;;;;;;-1.49;90.71;100501.16;5013005;28;20368;-69
2023/03/06 05:00:20;;;;;;;;;;;;;;;-1.50;90.71;100504.75;4997496;28;19917;-70
2023/03/06 05:02:46;;;;;;;;;;;;;;;-1.51;90.71;100492.63;5008685;28;19939;-69
2023/03/06 05:05:12;;;;;;;;;;;;;;;-1.56;90.71;100494.22;5024219;28;20560;-69
2023/03/06 05:07:38;;;;;;;;;;;;;;;-1.59;90.89;100503.31;5009317;28;19924;-70
2023/03/06 05:10:04;;;;;;;;;;;;;;;-1.59;90.61;100494.63;5000353;28;19924;-70
2023/03/06 05:12:29;;;;;;;;;;;;;;;-1.59;90.77;100494.63;5021176;28;19932;-70
2023/03/06 05:14:56;;;;;;;;;;;;;;;-1.60;90.76;100493.81;4990971;28;19928;-70
2023/03/06 05:17:22;;;;;;;;;;;;;;;-1.59;90.74;100494.63;5025298;28;20056;-68
2023/03/06 05:19:47;;;;;;;;;;;;;;;-1.58;90.77;100490.97;5025526;28;20411;-70
2023/03/06 05:22:13;;;;;;;;;;;;;;;-1.58;90.77;100491.78;5009524;28;19917;-69
2023/03/06 05:24:38;;;;;;;;;;;;;;;-1.59;90.73;100490.19;5011770;28;19962;-69
2023/03/06 05:27:03;;;;;;;;;;;;;;;-1.61;90.77;100486.13;4989364;28;19939;-68
2023/03/06 05:29:29;;;;;;;;;;;;;;;-1.64;90.58;100487.31;5009789;28;20012;-69
2023/03/06 05:31:55;;;;;;;;;;;;;;;-1.65;90.50;100490.97;5006583;28;19975;-69
2023/03/06 05:34:20;;;;;;;;;;;;;;;-1.69;90.56;100489.75;4991505;28;20070;-70
2023/03/06 05:36:46;;;;;;;;;;;;;;;-1.70;90.62;100490.72;5003586;28;20428;-71
2023/03/06 05:39:12;;;;;;;;;;;;;;;-1.71;90.52;100486.47;5004698;28;19917;-70
2023/03/06 05:41:37;;;;;;;;;;;;;;;-1.74;90.42;100486.88;5012532;28;19962;-70
2023/03/06 05:44:03;;;;;;;;;;;;;;;-1.78;90.41;100486.44;5009684;28;19941;-70
2023/03/06 05:46:28;;;;;;;;;;;;;;;-1.83;90.43;100486.25;5006256;28;19914;-70
2023/03/06 05:48:54;;;;;;;;;;;;;;;-1.85;90.54;100479.56;5003748;28;19921;-70
2023/03/06 05:51:20;;;;;;;;;;;;;;;-1.83;90.59;100485.41;5003134;28;19920;-70
2023/03/06 05:53:45;;;;;;;;;;;;;;;-1.83;90.28;100477.53;5012308;28;19917;-71
2023/03/06 05:56:11;;;;;;;;;;;;;;;-1.92;90.10;100471.66;5012258;28;19917;-71
2023/03/06 05:58:37;;;;;;;;;;;;;;;-1.96;90.26;100479.13;5030217;28;19931;-70
2023/03/06 06:01:13;;;;;;;;;;;;;;;-1.99;90.28;100476.88;5029258;28;20362;-71
2023/03/06 06:03:39;;;;;;;;;;;;;;;-2.06;90.12;100486.50;5009867;28;19913;-71
2023/03/06 06:06:05;;;;;;;;;;;;;;;-2.11;90.29;100483.66;4991871;28;19974;-70
2023/03/06 06:08:31;;;;;;;;;;;;;;;-2.19;90.35;100483.81;5004606;28;19917;-70
2023/03/06 06:10:56;;;;;;;;;;;;;;;-2.22;90.29;100487.63;5006934;28;19917;-69
2023/03/06 06:13:22;;;;;;;;;;;;;;;-2.27;90.20;100481.34;5007018;28;20321;-70
2023/03/06 06:15:48;;;;;;;;;;;;;;;-2.34;90.36;100470.00;4993953;28;20011;-70
2023/03/06 06:18:14;;;;;;;;;;;;;;;-2.36;90.26;100472.81;5010286;28;19952;-69
2023/03/06 06:20:40;;;;;;;;;;;;;;;-2.40;90.20;100481.25;4987653;28;20039;-69
2023/03/06 06:23:05;;;;;;;;;;;;;;;-2.43;90.35;100479.03;5008133;28;20404;-70
2023/03/06 06:25:31;;;;;;;;;;;;;;;-2.48;90.24;100490.88;5008824;28;19916;-70
2023/03/06 06:27:57;;;;;;;;;;;;;;;-2.53;90.08;100490.63;5023450;28;19948;-68
2023/03/06 06:30:22;;;;;;;;;;;;;;;-2.53;90.60;100488.00;5004802;28;19924;-69
2023/03/06 06:32:48;;;;;;;;;;;;;;;-2.55;90.32;100489.22;5007394;28;19916;-69
2023/03/06 06:35:13;;;;;;;;;;;;;;;-2.53;90.52;100484.56;4988435;28;20000;-69
2023/03/06 06:37:39;;;;;;;;;;;;;;;-2.51;90.65;100488.66;5023940;28;19922;-69
2023/03/06 06:40:05;;;;;;;;;;;;;;;-2.40;90.47;100496.97;5003715;28;19966;-69
2023/03/06 06:42:35;;;;;;;;;;;;;;;-2.21;90.53;100496.31;5013428;28;19920;-68
2023/03/06 06:45:01;;;;;;;;;;;;;;;-2.03;90.21;100494.00;5004569;28;19969;-71
2023/03/06 06:47:27;;;;;;;;;;;;;;;-1.89;90.21;100483.59;5008818;28;20646;-68
2023/03/06 06:49:53;;;;;;;;;;;;;;;-1.74;89.95;100481.63;4993443;28;19928;-69
2023/03/06 06:52:19;;;;;;;;;;;;;;;-1.70;89.99;100477.59;5026315;28;20410;-70
2023/03/06 06:54:46;;;;;;;;;;;;;;;-1.66;89.56;100478.84;4989827;28;19952;-69
2023/03/06 06:57:12;;;;;;;;;;;;;;;-1.54;89.81;100472.03;4972025;28;20016;-69
2023/03/06 06:59:37;;;;;;;;;;;;;;;-1.40;89.90;100472.88;5021739;28;20004;-70
2023/03/06 07:02:03;;;;;;;;;;;;;;;-1.37;90.27;100472.47;5005648;28;19924;-69
2023/03/06 07:04:28;;;;;;;;;;;;;;;-1.37;90.28;100468.03;5009361;28;20392;-68
2023/03/06 07:06:54;;;;;;;;;;;;;;;-1.32;89.67;100474.50;5026003;28;19974;-70
2023/03/06 07:09:21;;;;;;;;;;;;;;;-1.24;89.78;100469.06;5024740;28;19921;-69
2023/03/06 07:11:46;;;;;;;;;;;;;;;-1.14;90.04;100480.03;5025628;28;19917;-69
2023/03/06 07:14:12;;;;;;;;;;;;;;;-1.06;90.10;100482.47;5004887;28;19978;-70
2023/03/06 07:16:37;;;;;;;;;;;;;;;-1.08;89.76;100481.84;4998923;28;19928;-70
2023/03/06 07:19:03;;;;;;;;;;;;;;;-1.10;88.69;100482.03;5011000;28;19917;-70
2023/03/06 07:21:28;;;;;;;;;;;;;;;-1.04;88.96;100469.91;5001926;28;19917;-68
2023/03/06 07:23:56;;;;;;;;;;;;;;;-0.96;88.93;100479.44;4994003;28;19921;-69
2023/03/06 07:26:22;;;;;;;;;;;;;;;-0.95;88.66;100476.63;5022686;28;20222;-69
2023/03/06 07:28:51;;;;;;;;;;;;;;;-0.89;88.72;100475.78;5024277;28;20367;-69
2023/03/06 07:31:17;;;;;;;;;;;;;;;-0.83;89.31;100468.94;4996764;28;19916;-69
2023/03/06 07:33:43;;;;;;;;;;;;;;;-0.72;89.08;100478.03;5009671;28;19920;-69
2023/03/06 07:36:09;;;;;;;;;;;;;;;-0.58;89.25;100487.56;5008837;28;19917;-69
2023/03/06 07:38:35;;;;;;;;;;;;;;;-0.55;88.60;100484.50;5027345;28;19978;-70
2023/03/06 07:41:01;;;;;;;;;;;;;;;-0.51;88.67;100488.38;5022829;28;20051;-70
2023/03/06 07:43:29;;;;;;;;;;;;;;;-0.52;88.47;100491.19;5032492;28;20085;-69
2023/03/06 07:46:00;;;;;;;;;;;;;;;-0.46;88.58;100496.47;4996267;28;19916;-69
2023/03/06 07:48:25;;;;;;;;;;;;;;;-0.46;89.01;100491.19;5006564;28;20003;-70
2023/03/06 07:51:02;;;;;;;;;;;;;;;-0.44;88.71;100493.63;5031926;28;19917;-69
2023/03/06 07:53:28;;;;;;;;;;;;;;;-0.48;88.70;100503.72;5010504;28;19925;-69
2023/03/06 07:55:53;;;;;;;;;;;;;;;-0.44;88.48;100499.69;4999287;28;22050;-68
2023/03/06 07:58:19;;;;;;;;;;;;;;;-0.38;88.63;100506.78;5016401;28;20011;-68
2023/03/06 08:00:44;;;;;;;;;;;;;;;-0.36;88.21;100496.03;5006427;28;19917;-69
2023/03/06 08:03:10;;;;;;;;;;;;;;;-0.32;88.64;100508.59;5008473;28;20443;-68
2023/03/06 08:05:36;;;;;;;;;;;;;;;-0.21;88.09;100509.78;4989402;28;19913;-69
2023/03/06 08:08:04;;;;;;;;;;;;;;;-0.16;87.73;100503.91;5008478;28;19967;-67
2023/03/06 08:10:33;;;;;;;;;;;;;;;-0.07;87.98;100506.16;5006491;28;20038;-68
2023/03/06 08:12:58;;;;;;;;;;;;;;;-0.01;87.31;100499.22;5018604;28;19963;-68
2023/03/06 08:15:24;;;;;;;;;;;;;;;0.00;87.43;100500.88;5004374;28;19964;-68
2023/03/06 08:17:50;;;;;;;;;;;;;;;0.06;87.33;100507.91;5007940;28;19929;-69
2023/03/06 08:20:17;;;;;;;;;;;;;;;0.06;87.40;100505.28;5007329;28;20016;-69
2023/03/06 08:22:43;;;;;;;;;;;;;;;0.11;87.39;100516.00;5010714;28;19917;-70
2023/03/06 08:25:09;;;;;;;;;;;;;;;0.11;87.16;100508.13;4991730;28;19919;-70
2023/03/06 08:27:35;;;;;;;;;;;;;;;0.12;86.99;100509.72;5008614;28;19917;-69
2023/03/06 08:30:00;;;;;;;;;;;;;;;0.11;86.99;100517.84;5011413;28;19921;-70
2023/03/06 08:32:26;;;;;;;;;;;;;;;0.15;86.78;100519.88;5024460;28;20008;-69
2023/03/06 08:34:52;;;;;;;;;;;;;;;0.14;86.96;100520.88;5011115;28;19956;-69
2023/03/06 08:37:17;;;;;;;;;;;;;;;0.19;86.67;100514.97;4990331;28;20023;-69
2023/03/06 08:39:43;;;;;;;;;;;;;;;0.13;86.80;100516.59;4987908;28;19924;-69
2023/03/06 08:42:11;;;;;;;;;;;;;;;0.16;86.87;100518.84;4995705;28;20639;-69
2023/03/06 08:44:37;;;;;;;;;;;;;;;0.19;87.22;100520.25;5022860;28;20432;-70
2023/03/06 08:47:03;;;;;;;;;;;;;;;0.22;86.93;100520.66;4990594;28;19916;-70
2023/03/06 08:49:28;;;;;;;;;;;;;;;0.21;86.84;100519.03;4988322;28;19917;-70
2023/03/06 08:51:54;;;;;;;;;;;;;;;0.28;86.95;100512.94;5024686;28;19927;-70
2023/03/06 08:54:19;;;;;;;;;;;;;;;0.24;86.85;100521.25;5004482;28;19921;-69
2023/03/06 08:56:45;;;;;;;;;;;;;;;0.36;86.91;100525.88;4988831;28;19928;-69
2023/03/06 08:59:12;;;;;;;;;;;;;;;0.37;86.74;100522.22;5009892;28;19947;-71
2023/03/06 09:01:38;;;;;;;;;;;;;;;0.44;86.50;100521.19;5003667;28;19917;-70
2023/03/06 09:04:09;;;;;;;;;;;;;;;0.57;86.80;100530.06;5012560;28;20266;-71
2023/03/06 09:06:36;;;;;;;;;;;;;;;0.63;85.59;100521.31;4988327;28;20492;-69
2023/03/06 09:09:01;;;;;;;;;;;;;;;0.71;86.25;100529.78;5004753;28;19917;-70
2023/03/06 09:11:28;;;;;;;;;;;;;;;0.82;86.47;100526.50;5004514;28;19924;-70
2023/03/06 09:13:54;;;;;;;;;;;;;;;0.96;85.78;100534.34;4996181;28;19920;-69
2023/03/06 09:16:20;;;;;;;;;;;;;;;1.18;85.12;100533.00;5007872;28;19921;-69
2023/03/06 09:18:46;;;;;;;;;;;;;;;1.30;84.06;100539.22;5022956;28;19921;-70
2023/03/06 09:21:11;;;;;;;;;;;;;;;1.21;83.80;100529.09;5013373;28;20055;-70
2023/03/06 09:23:38;;;;;;;;;;;;;;;1.29;81.89;100528.88;5010262;28;19923;-70
2023/03/06 09:26:04;;;;;;;;;;;;;;;1.08;83.38;100536.09;4991481;28;19943;-70
2023/03/06 09:28:29;;;;;;;;;;;;;;;1.06;82.09;100534.69;5000766;28;19917;-70
2023/03/06 09:30:55;;;;;;;;;;;;;;;1.07;82.91;100528.38;5025187;28;19917;-70
2023/03/06 09:33:21;;;;;;;;;;;;;;;1.05;82.23;100531.25;5000839;28;19917;-70
2023/03/06 09:35:54;;;;;;;;;;;;;;;1.21;82.35;100537.81;5005986;28;19940;-71
2023/03/06 09:38:21;;;;;;;;;;;;;;;1.41;83.44;100539.53;4990023;28;19921;-70
2023/03/06 09:40:56;;;;;;;;;;;;;;;1.60;82.41;100533.28;5021227;28;19917;-69
2023/03/06 09:43:34;;;;;;;;;;;;;;;1.82;81.23;100542.44;5008900;28;19948;-70
2023/03/06 09:46:05;;;;;;;;;;;;;;;1.81;81.76;100535.56;4990331;28;19960;-69
2023/03/06 09:48:39;;;;;;;;;;;;;;;1.74;81.21;100548.00;5027455;28;19921;-70
2023/03/06 09:51:13;;;;;;;;;;;;;;;1.55;80.17;100541.03;5007774;28;19956;-70
2023/03/06 09:53:45;;;;;;;;;;;;;;;1.63;80.41;100540.81;4990929;28;19913;-73
2023/03/06 09:56:19;;;;;;;;;;;;;;;1.69;81.22;100541.75;5005082;28;19923;-71
2023/03/06 09:58:50;;;;;;;;;;;;;;;1.70;80.47;100531.00;5007032;28;20016;-72
2023/03/06 10:01:19;;;;;;;;;;;;;;;1.73;80.42;100537.66;5007477;28;19945;-71
2023/03/06 10:03:58;;;;;;;;;;;;;;;1.92;80.44;100540.13;4987257;28;19976;-71
2023/03/06 10:06:41;;;;;;;;;;;;;;;1.59;81.32;100531.69;4996302;28;19917;-71
2023/03/06 10:09:40;;;;;;;;;;;;;;;2.03;80.45;100530.69;5005927;28;19945;-70
2023/03/06 10:12:14;;;;;;;;;;;;;;;2.01;79.56;100535.38;4988005;28;20290;-71
2023/03/06 10:14:44;;;;;;;;;;;;;;;2.01;79.43;100532.72;5008631;28;19952;-71
2023/03/06 10:17:17;;;;;;;;;;;;;;;2.23;79.95;100530.47;5026348;28;19964;-70
2023/03/06 10:19:43;;;;;;;;;;;;;;;2.21;79.69;100529.88;5008440;28;19917;-71
2023/03/06 10:22:18;;;;;;;;;;;;;;;2.31;79.67;100519.63;5023922;28;20016;-72
2023/03/06 10:24:48;;;;;;;;;;;;;;;2.78;79.35;100508.47;5006435;28;19939;-70
2023/03/06 10:27:46;;;;;;;;;;;;;;;2.63;77.38;100511.50;5018402;28;19917;-71
2023/03/06 10:30:12;;;;;;;;;;;;;;;2.79;78.61;100520.69;4962925;28;20449;-72
2023/03/06 10:32:58;;;;;;;;;;;;;;;2.61;77.33;100514.38;5014296;28;19927;-72
2023/03/06 10:35:30;;;;;;;;;;;;;;;2.67;79.34;100510.03;5011373;28;19959;-71
2023/03/06 10:38:04;;;;;;;;;;;;;;;2.68;77.16;100512.47;4994275;28;19921;-72
2023/03/06 10:40:37;;;;;;;;;;;;;;;2.44;78.13;100508.91;5022477;28;19924;-72
2023/03/06 10:43:07;;;;;;;;;;;;;;;2.22;78.67;100514.84;4996373;28;19936;-71
2023/03/06 10:45:33;;;;;;;;;;;;;;;1.92;79.13;100511.06;5002412;28;19913;-71
2023/03/06 10:48:10;;;;;;;;;;;;;;;2.16;78.64;100500.66;5021967;28;19923;-71
2023/03/06 10:50:36;;;;;;;;;;;;;;;2.59;78.48;100505.06;4991024;28;19920;-72
2023/03/06 10:53:14;;;;;;;;;;;;;;;2.55;77.25;100494.13;4992172;28;19917;-72
2023/03/06 10:55:39;;;;;;;;;;;;;;;3.13;78.72;100498.84;4997990;28;19917;-72
2023/03/06 10:58:20;;;;;;;;;;;;;;;2.89;76.76;100500.59;5025864;28;20993;-72
2023/03/06 11:00:46;;;;;;;;;;;;;;;2.71;78.42;100501.47;4986662;28;20619;-71
2023/03/06 11:03:30;;;;;;;;;;;;;;;2.62;76.47;100494.03;5029102;28;19917;-72
2023/03/06 11:05:58;;;;;;;;;;;;;;;2.36;77.41;100493.31;4997148;28;19983;-72
2023/03/06 11:08:24;;;;;;;;;;;;;;;2.49;77.69;100496.84;4980142;28;19974;-72
2023/03/06 11:10:56;;;;;;;;;;;;;;;2.97;75.82;100492.31;5021945;28;19944;-72
2023/03/06 11:13:23;;;;;;;;;;;;;;;3.04;75.75;100488.78;5012068;28;19917;-71
2023/03/06 11:15:54;;;;;;;;;;;;;;;3.25;74.75;100490.91;5025708;28;19924;-71
2023/03/06 11:18:33;;;;;;;;;;;;;;;3.55;72.83;100491.66;5020643;28;19921;-73
2023/03/06 11:21:01;;;;;;;;;;;;;;;3.56;71.90;100495.91;5005386;28;19995;-72
2023/03/06 11:23:39;;;;;;;;;;;;;;;3.90;71.05;100485.53;4998525;28;19941;-72
2023/03/06 11:26:05;;;;;;;;;;;;;;;4.18;72.29;100481.38;5025402;28;19967;-72
2023/03/06 11:28:33;;;;;;;;;;;;;;;4.40;72.77;100482.34;5026574;28;19921;-72
2023/03/06 11:30:58;;;;;;;;;;;;;;;4.19;71.73;100482.97;5028385;28;20367;-72
2023/03/06 11:33:33;;;;;;;;;;;;;;;3.56;72.19;100487.97;4996757;28;19928;-72
2023/03/06 11:36:07;;;;;;;;;;;;;;;4.07;73.78;100475.88;5011238;28;19952;-73
2023/03/06 11:38:33;;;;;;;;;;;;;;;4.08;71.58;100469.53;5022830;28;20007;-70
2023/03/06 11:41:01;;;;;;;;;;;;;;;4.61;66.61;100465.81;5014368;28;19967;-72
2023/03/06 11:43:31;;;;;;;;;;;;;;;4.13;69.81;100462.69;5033867;28;19917;-72
2023/03/06 11:46:01;;;;;;;;;;;;;;;4.71;62.84;100465.19;5029858;28;20293;-72
2023/03/06 11:48:30;;;;;;;;;;;;;;;4.83;64.25;100462.47;5012900;28;19964;-72
2023/03/06 11:51:01;;;;;;;;;;;;;;;4.67;65.31;100461.38;5001831;28;19938;-72
2023/03/06 11:53:47;;;;;;;;;;;;;;;4.66;68.05;100465.06;5016420;28;19920;-71
2023/03/06 11:56:19;;;;;;;;;;;;;;;4.50;65.85;100455.22;5005113;28;19924;-70
2023/03/06 11:59:03;;;;;;;;;;;;;;;4.33;67.46;100463.09;5010670;28;20092;-71
2023/03/06 12:01:35;;;;;;;;;;;;;;;4.08;65.38;100456.28;5007587;28;20426;-71
2023/03/06 12:04:13;;;;;;;;;;;;;;;3.80;66.96;100458.84;5007736;28;19960;-71
2023/03/06 12:06:39;;;;;;;;;;;;;;;4.09;65.31;100451.78;5002194;28;20466;-72
2023/03/06 12:09:13;;;;;;;;;;;;;;;4.68;65.69;100448.94;5013423;28;20003;-72
2023/03/06 12:11:41;;;;;;;;;;;;;;;4.88;64.62;100444.81;5007064;28;19961;-72
2023/03/06 12:14:10;;;;;;;;;;;;;;;5.46;61.48;100445.47;4999460;28;20375;-72
2023/03/06 12:16:39;;;;;;;;;;;;;;;5.47;63.83;100452.38;4993805;28;19996;-73
2023/03/06 12:19:23;;;;;;;;;;;;;;;5.33;60.43;100438.63;4994744;28;20394;-72
2023/03/06 12:21:49;;;;;;;;;;;;;;;5.36;60.22;100440.81;5022948;28;19917;-72
2023/03/06 12:24:50;;;;;;;;;;;;;;;6.07;59.87;100443.69;5011358;28;19920;-72
2023/03/06 12:27:34;;;;;;;;;;;;;;;5.89;57.26;100435.97;5001207;28;19913;-71
2023/03/06 12:30:12;;;;;;;;;;;;;;;5.11;57.71;100432.44;5017595;28;19921;-71
2023/03/06 12:32:51;;;;;;;;;;;;;;;4.95;59.47;100428.72;5013315;28;19967;-72
2023/03/06 12:35:37;;;;;;;;;;;;;;;5.74;58.01;100437.38;5014521;28;19920;-71
2023/03/06 12:38:22;;;;;;;;;;;;;;;5.60;55.73;100425.47;4977313;28;20390;-72
2023/03/06 12:41:06;;;;;;;;;;;;;;;5.24;56.94;100429.47;5024819;28;19917;-72
2023/03/06 12:43:41;;;;;;;;;;;;;;;5.18;57.79;100423.25;5002714;28;20717;-72
2023/03/06 12:46:13;;;;;;;;;;;;;;;5.07;58.79;100426.00;5002183;28;19952;-72